Time;durP1;ratioP1;P1;durP2;ratioP2;P2;SDS_P1;SDS_P2;PMS_P1;PMS_P2;Temp;Humidity;BMP_temperature;BMP_pressure;BME280_temperature;BME280_humidity;BME280_pressure;Samples;Min_cycle;Max_cycle;Signal;HPM_P1;HPM_P2
2022/10/20 00:01:53;;;;;;;14.88;8.30;;;;;;;13.62;76.76;95099.81;5096210;28;20210;-72
2022/10/20 00:04:20;;;;;;;16.35;9.32;;;;;;;13.62;76.78;95094.34;5111581;28;20286;-72
2022/10/20 00:06:46;;;;;;;14.60;9.35;;;;;;;13.63;76.21;95101.41;5111913;28;20651;-72
2022/10/20 00:09:13;;;;;;;20.10;8.90;;;;;;;13.59;76.29;95105.13;5112026;28;20205;-72
2022/10/20 00:11:44;;;;;;;13.07;8.02;;;;;;;13.57;75.73;95097.28;5093152;28;20229;-72
2022/10/20 00:14:11;;;;;;;10.18;6.60;;;;;;;13.53;74.94;95096.34;5091487;28;20990;-72
2022/10/20 00:16:39;;;;;;;11.82;6.78;;;;;;;13.55;74.68;95096.81;5091074;28;20684;-72
2022/10/20 00:19:06;;;;;;;13.38;5.45;;;;;;;13.52;74.25;95101.03;5091551;28;20206;-72
2022/10/20 00:21:33;;;;;;;13.30;7.72;;;;;;;13.47;74.02;95087.59;5090963;28;20672;-72
2022/10/20 00:24:01;;;;;;;11.43;7.38;;;;;;;13.56;74.17;95100.34;5091359;28;20202;-72
2022/10/20 00:26:28;;;;;;;11.75;6.72;;;;;;;13.47;73.67;95103.16;5091122;28;20215;-72
2022/10/20 00:28:57;;;;;;;12.15;6.85;;;;;;;13.44;73.52;95101.88;5090804;28;20243;-72
2022/10/20 00:31:25;;;;;;;12.45;7.00;;;;;;;13.41;73.18;95110.69;5090957;28;20245;-71
2022/10/20 00:33:52;;;;;;;11.13;7.43;;;;;;;13.40;72.74;95098.22;5103841;28;20254;-71
2022/10/20 00:36:20;;;;;;;11.88;5.93;;;;;;;13.41;72.77;95093.56;5090833;28;20232;-71
2022/10/20 00:38:47;;;;;;;7.15;5.05;;;;;;;13.38;72.45;95094.28;5090987;28;20247;-71
2022/10/20 00:41:16;;;;;;;7.60;5.53;;;;;;;13.37;72.43;95096.19;5090881;28;20487;-72
2022/10/20 00:43:48;;;;;;;17.75;10.65;;;;;;;13.30;72.36;95093.19;5091205;28;20205;-72
2022/10/20 00:46:19;;;;;;;9.65;5.60;;;;;;;13.25;72.34;95084.47;5090862;28;20195;-72
2022/10/20 00:48:49;;;;;;;10.25;5.38;;;;;;;13.25;72.01;95073.56;5107603;28;20265;-72
2022/10/20 00:51:20;;;;;;;7.15;4.88;;;;;;;13.24;71.66;95083.66;5100556;28;20234;-72
2022/10/20 00:53:50;;;;;;;6.53;4.38;;;;;;;13.22;71.29;95077.75;5091053;28;20202;-72
2022/10/20 00:56:17;;;;;;;9.98;5.25;;;;;;;13.21;71.00;95070.72;5090745;28;20213;-72
2022/10/20 00:58:44;;;;;;;7.75;5.35;;;;;;;13.19;70.80;95059.38;5090724;28;20248;-72
2022/10/20 01:01:13;;;;;;;9.40;5.68;;;;;;;13.16;71.15;95070.91;5090360;28;20202;-72
2022/10/20 01:03:45;;;;;;;10.85;5.45;;;;;;;13.12;70.83;95081.63;5090397;28;20246;-72
2022/10/20 01:06:16;;;;;;;11.63;7.28;;;;;;;13.10;70.74;95074.94;5103601;28;20266;-72
2022/10/20 01:08:43;;;;;;;5.28;4.18;;;;;;;13.14;69.46;95079.41;5104131;28;20202;-71
2022/10/20 01:11:17;;;;;;;7.65;4.35;;;;;;;13.09;69.64;95076.06;5090448;28;20246;-72
2022/10/20 01:13:56;;;;;;;6.30;4.07;;;;;;;13.11;69.44;95079.25;5102528;28;20692;-73
2022/10/20 01:16:28;;;;;;;8.25;3.83;;;;;;;13.11;69.30;95090.13;5090647;28;20265;-73
2022/10/20 01:19:05;;;;;;;6.55;3.85;;;;;;;13.10;69.33;95083.09;5101673;28;20255;-71
2022/10/20 01:21:57;;;;;;;10.55;6.03;;;;;;;13.12;69.45;95091.69;5093218;28;20205;-73
2022/10/20 01:24:44;;;;;;;5.60;4.05;;;;;;;13.07;69.31;95083.75;5094532;28;20295;-73
2022/10/20 01:27:30;;;;;;;10.68;4.97;;;;;;;13.06;69.08;95087.59;5090538;28;20232;-71
2022/10/20 01:30:03;;;;;;;6.63;4.38;;;;;;;13.09;69.55;95086.94;5085971;28;20628;-71
2022/10/20 01:32:38;;;;;;;4.32;2.75;;;;;;;13.01;69.46;95083.16;5090192;28;20244;-71
2022/10/20 01:35:11;;;;;;;6.45;3.40;;;;;;;12.96;69.74;95086.09;5089715;28;20619;-73
2022/10/20 01:37:44;;;;;;;8.57;4.35;;;;;;;12.94;69.80;95085.63;5090026;28;20195;-72
2022/10/20 01:40:20;;;;;;;4.28;3.55;;;;;;;12.97;69.51;95090.41;5089974;28;20293;-72
2022/10/20 01:42:52;;;;;;;5.90;4.22;;;;;;;12.93;69.80;95078.59;5077761;28;20248;-71
2022/10/20 01:45:23;;;;;;;9.85;6.47;;;;;;;12.92;69.94;95092.50;5104243;28;20571;-72
2022/10/20 01:47:53;;;;;;;13.18;5.22;;;;;;;12.86;70.44;95093.81;5101233;28;20210;-72
2022/10/20 01:50:21;;;;;;;7.20;4.88;;;;;;;12.80;70.85;95093.22;5089582;28;20699;-72
2022/10/20 01:52:48;;;;;;;6.05;3.65;;;;;;;12.73;71.11;95088.31;5090027;28;20730;-72
2022/10/20 01:55:17;;;;;;;6.93;3.35;;;;;;;12.61;71.64;95082.78;5089539;28;20206;-73
2022/10/20 01:58:00;;;;;;;5.97;3.40;;;;;;;12.48;72.28;95093.88;5090307;28;20260;-72
2022/10/20 02:00:27;;;;;;;6.80;3.88;;;;;;;12.34;72.71;95094.13;5089737;28;20194;-71
2022/10/20 02:03:14;;;;;;;7.40;4.97;;;;;;;12.22;73.31;95107.59;5089843;28;20291;-73
2022/10/20 02:05:53;;;;;;;5.10;2.20;;;;;;;12.16;73.73;95101.56;5077839;28;20229;-73
2022/10/20 02:08:28;;;;;;;6.53;3.78;;;;;;;12.06;74.25;95105.41;5092665;28;20251;-72
2022/10/20 02:10:59;;;;;;;9.55;4.18;;;;;;;11.98;74.54;95103.53;5099218;28;20221;-73
2022/10/20 02:13:30;;;;;;;4.53;3.65;;;;;;;11.94;74.74;95108.00;5104022;28;20210;-73
2022/10/20 02:16:01;;;;;;;5.32;3.05;;;;;;;11.89;74.95;95110.88;5089848;28;20304;-73
2022/10/20 02:18:34;;;;;;;5.47;3.30;;;;;;;11.83;75.19;95114.13;5083369;28;20277;-73
2022/10/20 02:21:02;;;;;;;8.65;3.60;;;;;;;11.73;75.65;95112.53;5110251;28;20259;-74
2022/10/20 02:23:31;;;;;;;7.22;4.38;;;;;;;11.67;75.93;95113.78;5100723;28;20202;-73
2022/10/20 02:25:59;;;;;;;7.15;3.88;;;;;;;11.52;76.35;95119.72;5102797;28;20205;-73
2022/10/20 02:28:28;;;;;;;5.93;4.22;;;;;;;11.51;76.50;95112.69;5098906;28;20574;-72
2022/10/20 02:30:57;;;;;;;3.65;2.67;;;;;;;11.52;76.39;95112.38;5091735;28;20233;-73
2022/10/20 02:33:23;;;;;;;7.80;3.80;;;;;;;11.42;76.89;95120.06;5080934;28;20190;-72
2022/10/20 02:35:56;;;;;;;8.30;5.13;;;;;;;11.35;77.07;95113.19;5090807;28;20290;-73
2022/10/20 02:38:23;;;;;;;6.68;3.88;;;;;;;11.40;76.96;95121.16;5089437;28;20194;-73
2022/10/20 02:40:50;;;;;;;6.80;4.18;;;;;;;11.32;77.12;95124.69;5102465;28;20583;-72
2022/10/20 02:43:17;;;;;;;7.82;4.35;;;;;;;11.20;77.57;95121.84;5090765;28;20218;-73
2022/10/20 02:45:45;;;;;;;6.88;4.63;;;;;;;11.10;77.96;95132.97;5091368;28;20255;-73
2022/10/20 02:48:12;;;;;;;5.90;4.13;;;;;;;10.98;78.35;95140.94;5088919;28;20726;-73
2022/10/20 02:50:38;;;;;;;8.07;4.80;;;;;;;10.95;78.45;95136.16;5088728;28;20542;-73
2022/10/20 02:53:06;;;;;;;6.93;4.65;;;;;;;10.89;78.86;95132.00;5089064;28;20552;-73
2022/10/20 02:55:32;;;;;;;5.28;3.47;;;;;;;10.87;78.79;95129.59;5089084;28;20659;-73
2022/10/20 02:57:59;;;;;;;7.68;4.70;;;;;;;10.82;79.04;95142.50;5093604;28;20251;-73
2022/10/20 03:00:28;;;;;;;7.20;4.43;;;;;;;10.78;79.27;95138.84;5094264;28;20624;-73
2022/10/20 03:02:56;;;;;;;6.97;3.65;;;;;;;10.68;79.57;95137.22;5092611;28;20287;-72
2022/10/20 03:05:23;;;;;;;6.15;3.45;;;;;;;10.65;79.70;95141.38;5091980;28;20222;-72
2022/10/20 03:07:50;;;;;;;8.55;4.70;;;;;;;10.56;80.05;95143.25;5092302;28;20252;-72
2022/10/20 03:10:17;;;;;;;7.75;4.20;;;;;;;10.55;80.03;95144.34;5112181;28;20687;-72
2022/10/20 03:12:43;;;;;;;6.05;3.97;;;;;;;10.59;80.02;95139.91;5099676;28;20283;-72
2022/10/20 03:15:11;;;;;;;8.10;5.05;;;;;;;10.55;80.30;95144.34;5091830;28;20202;-72
2022/10/20 03:17:38;;;;;;;8.23;4.38;;;;;;;10.63;80.16;95157.13;5106600;28;20209;-72
2022/10/20 03:20:07;;;;;;;5.00;4.07;;;;;;;10.59;80.40;95155.38;5092433;28;20275;-72
2022/10/20 03:22:34;;;;;;;5.10;4.10;;;;;;;10.55;80.66;95154.38;5091824;28;20194;-72
2022/10/20 03:25:01;;;;;;;8.63;4.70;;;;;;;10.50;81.10;95152.63;5092670;28;20268;-72
2022/10/20 03:27:27;;;;;;;7.43;4.72;;;;;;;10.57;80.80;95152.97;5092428;28;20251;-72
2022/10/20 03:29:54;;;;;;;8.85;5.70;;;;;;;10.50;81.09;95152.63;5092649;28;20507;-72
2022/10/20 03:32:21;;;;;;;7.65;3.78;;;;;;;10.47;81.27;95155.16;5092235;28;20234;-72
2022/10/20 03:34:48;;;;;;;6.47;4.00;;;;;;;10.49;81.23;95156.47;5092420;28;20210;-72
2022/10/20 03:37:16;;;;;;;13.38;5.38;;;;;;;10.51;81.25;95159.66;5092434;28;20206;-73
2022/10/20 03:39:42;;;;;;;7.63;4.47;;;;;;;10.58;81.02;95165.41;5100120;28;20206;-71
2022/10/20 03:42:09;;;;;;;8.23;5.30;;;;;;;10.55;80.93;95166.03;5096923;28;20248;-72
2022/10/20 03:44:36;;;;;;;5.10;3.30;;;;;;;10.46;81.47;95170.63;5092176;28;20199;-72
2022/10/20 03:47:03;;;;;;;7.15;3.75;;;;;;;10.43;81.56;95171.25;5092139;28;20256;-72
2022/10/20 03:49:31;;;;;;;5.47;3.50;;;;;;;10.44;81.76;95170.13;5092288;28;20214;-71
2022/10/20 03:51:58;;;;;;;8.70;4.35;;;;;;;10.37;82.06;95169.81;5091632;28;20720;-72
2022/10/20 03:54:26;;;;;;;5.60;3.85;;;;;;;10.42;82.01;95175.06;5092165;28;20293;-73
2022/10/20 03:56:53;;;;;;;8.43;4.85;;;;;;;10.42;82.05;95183.19;5090798;28;20198;-72
2022/10/20 03:59:20;;;;;;;10.23;5.00;;;;;;;10.40;82.17;95179.97;5091258;28;20600;-72
2022/10/20 04:01:47;;;;;;;9.15;4.45;;;;;;;10.38;82.21;95173.31;5093052;28;20661;-70
2022/10/20 04:04:14;;;;;;;5.20;4.05;;;;;;;10.40;82.28;95174.56;5094989;28;20318;-70
2022/10/20 04:06:41;;;;;;;5.00;3.28;;;;;;;10.37;82.49;95169.81;5090249;28;20199;-71
2022/10/20 04:09:07;;;;;;;8.35;5.22;;;;;;;10.33;82.53;95171.53;5090462;28;20412;-72
2022/10/20 04:11:35;;;;;;;8.65;5.25;;;;;;;10.31;82.73;95176.44;5089045;28;20315;-70
2022/10/20 04:14:02;;;;;;;8.02;5.10;;;;;;;10.28;82.86;95177.06;5090152;28;20289;-72
2022/10/20 04:16:29;;;;;;;10.40;5.57;;;;;;;10.25;82.99;95172.28;5089722;28;20259;-72
2022/10/20 04:18:56;;;;;;;6.93;4.45;;;;;;;10.27;83.05;95175.47;5088408;28;20260;-72
2022/10/20 04:21:24;;;;;;;5.65;3.67;;;;;;;10.37;82.99;95167.09;5087933;28;20669;-72
2022/10/20 04:23:51;;;;;;;5.63;4.38;;;;;;;10.35;82.98;95161.19;5090735;28;20213;-72
2022/10/20 04:26:17;;;;;;;6.38;4.32;;;;;;;10.46;82.48;95177.94;5090711;28;20207;-71
2022/10/20 04:28:46;;;;;;;8.13;3.95;;;;;;;10.72;81.50;95178.03;5091582;28;20257;-72
2022/10/20 04:31:12;;;;;;;7.32;3.60;;;;;;;10.66;81.72;95171.94;5095680;28;20616;-72
2022/10/20 04:33:39;;;;;;;9.18;5.03;;;;;;;10.68;81.38;95167.81;5110875;28;20714;-71
2022/10/20 04:36:08;;;;;;;3.78;2.72;;;;;;;10.72;81.33;95165.28;5091634;28;20649;-74
2022/10/20 04:38:35;;;;;;;8.00;4.18;;;;;;;10.79;80.87;95167.53;5090411;28;20296;-72
2022/10/20 04:41:04;;;;;;;5.45;3.42;;;;;;;10.71;80.86;95158.25;5090711;28;20207;-71
2022/10/20 04:43:31;;;;;;;6.15;3.58;;;;;;;10.72;81.05;95178.03;5091124;28;20292;-71
2022/10/20 04:46:02;;;;;;;5.93;4.03;;;;;;;10.70;80.91;95172.91;5090492;28;20198;-72
2022/10/20 04:48:29;;;;;;;8.70;4.78;;;;;;;10.60;81.31;95182.16;5104119;28;20201;-72
2022/10/20 04:51:06;;;;;;;8.52;4.50;;;;;;;10.51;81.55;95186.75;5110659;28;20213;-73
2022/10/20 04:53:33;;;;;;;6.95;4.40;;;;;;;10.47;81.78;95191.19;5109946;28;20304;-72
2022/10/20 04:56:00;;;;;;;6.25;4.55;;;;;;;10.54;81.30;95191.50;5090970;28;20201;-72
2022/10/20 04:58:27;;;;;;;9.45;4.40;;;;;;;10.45;81.32;95203.44;5090417;28;20675;-71
2022/10/20 05:00:54;;;;;;;6.97;3.95;;;;;;;10.46;81.67;95200.41;5090422;28;20254;-73
2022/10/20 05:03:22;;;;;;;7.50;4.47;;;;;;;10.43;81.86;95203.75;5090098;28;20242;-73
2022/10/20 05:05:49;;;;;;;4.45;3.03;;;;;;;10.64;81.07;95207.50;5082259;28;20267;-74
2022/10/20 05:08:15;;;;;;;8.25;4.32;;;;;;;10.79;80.47;95206.28;5104012;28;20721;-73
2022/10/20 05:10:42;;;;;;;4.93;3.67;;;;;;;10.78;79.66;95187.63;5100359;28;20266;-73
2022/10/20 05:13:09;;;;;;;8.15;4.22;;;;;;;11.12;78.65;95205.88;5094374;28;20298;-72
2022/10/20 05:15:36;;;;;;;6.63;4.07;;;;;;;11.60;77.30;95205.75;5090096;28;20260;-73
2022/10/20 05:18:03;;;;;;;5.95;3.97;;;;;;;12.06;74.94;95207.81;5103910;28;20286;-73
2022/10/20 05:20:31;;;;;;;6.15;3.65;;;;;;;12.24;74.00;95197.72;5090598;28;20209;-72
2022/10/20 05:22:58;;;;;;;17.35;4.30;;;;;;;12.64;72.43;95218.03;5099516;28;20244;-72
2022/10/20 05:25:25;;;;;;;5.22;2.88;;;;;;;12.68;71.68;95219.00;5088099;28;20202;-73
2022/10/20 05:27:51;;;;;;;3.30;2.38;;;;;;;12.76;71.39;95220.06;5081113;28;20600;-73
2022/10/20 05:30:18;;;;;;;6.38;4.35;;;;;;;12.96;71.14;95223.97;5097287;28;20749;-71
2022/10/20 05:32:46;;;;;;;9.00;4.45;;;;;;;13.31;69.83;95225.41;5106294;28;20238;-71
2022/10/20 05:35:13;;;;;;;7.35;4.70;;;;;;;13.52;68.81;95230.88;5085874;28;20490;-72
2022/10/20 05:37:41;;;;;;;6.50;4.22;;;;;;;13.58;68.57;95234.19;5087710;28;20256;-71
2022/10/20 05:40:09;;;;;;;6.28;4.15;;;;;;;13.78;68.11;95238.84;5084996;28;20598;-71
2022/10/20 05:42:36;;;;;;;8.15;4.60;;;;;;;13.91;67.44;95243.22;5086822;28;20244;-73
2022/10/20 05:45:03;;;;;;;3.72;2.40;;;;;;;13.66;68.19;95249.69;5102033;28;20610;-73
2022/10/20 05:47:30;;;;;;;6.65;3.70;;;;;;;13.86;67.60;95254.31;5105265;28;20213;-73
2022/10/20 05:49:57;;;;;;;6.82;4.00;;;;;;;14.20;66.59;95262.19;5082215;28;20226;-73
2022/10/20 05:52:23;;;;;;;6.90;3.55;;;;;;;14.45;66.12;95251.41;5081704;28;20238;-72
2022/10/20 05:54:51;;;;;;;7.03;4.43;;;;;;;14.54;65.95;95263.81;5089199;28;20700;-73
2022/10/20 05:57:18;;;;;;;5.68;3.83;;;;;;;14.27;66.99;95271.75;5102664;28;20198;-73
2022/10/20 05:59:46;;;;;;;11.57;6.85;;;;;;;14.23;67.24;95272.41;5090289;28;20356;-73
2022/10/20 06:02:13;;;;;;;11.55;6.65;;;;;;;14.50;66.46;95270.25;5078375;28;20728;-73
2022/10/20 06:04:40;;;;;;;15.65;3.70;;;;;;;14.93;64.84;95273.31;5095490;28;20221;-72
2022/10/20 06:07:08;;;;;;;7.10;4.15;;;;;;;14.71;66.17;95292.03;5083597;28;20312;-72
2022/10/20 06:09:36;;;;;;;8.32;5.28;;;;;;;14.53;66.67;95283.22;5085153;28;20198;-72
2022/10/20 06:12:05;;;;;;;6.85;4.60;;;;;;;14.76;66.03;95291.84;5083153;28;20234;-73
2022/10/20 06:14:32;;;;;;;6.07;4.22;;;;;;;14.21;67.58;95307.38;5083582;28;20259;-73
2022/10/20 06:16:59;;;;;;;7.80;4.80;;;;;;;14.37;67.31;95298.59;5091459;28;20294;-73
2022/10/20 06:19:26;;;;;;;6.72;3.97;;;;;;;14.40;67.54;95303.41;5108450;28;20254;-74
2022/10/20 06:21:53;;;;;;;5.63;3.75;;;;;;;14.26;68.14;95319.22;5092602;28;20201;-72
2022/10/20 06:24:20;;;;;;;6.10;3.22;;;;;;;13.93;69.33;95311.00;5093981;28;20206;-73
2022/10/20 06:26:47;;;;;;;11.18;5.90;;;;;;;14.49;67.75;95306.84;5089708;28;20202;-73
2022/10/20 06:29:18;;;;;;;8.10;6.03;;;;;;;14.32;68.40;95317.88;5105121;28;20638;-73
2022/10/20 06:31:47;;;;;;;12.50;5.93;;;;;;;14.22;68.50;95316.34;5103726;28;20198;-73
2022/10/20 06:34:15;;;;;;;11.93;5.72;;;;;;;13.64;69.96;95314.56;5093488;28;20657;-73
2022/10/20 06:36:43;;;;;;;12.75;6.72;;;;;;;14.30;68.83;95317.41;5093968;28;20202;-73
2022/10/20 06:39:12;;;;;;;9.13;5.68;;;;;;;14.17;68.28;95317.38;5093339;28;20248;-73
2022/10/20 06:41:39;;;;;;;12.63;8.38;;;;;;;14.50;67.38;95319.34;5093431;28;20206;-73
2022/10/20 06:44:06;;;;;;;5.25;3.60;;;;;;;13.82;69.18;95326.91;5093581;28;20626;-74
2022/10/20 06:46:36;;;;;;;15.13;9.15;;;;;;;13.62;70.28;95320.31;5105224;28;20286;-73
2022/10/20 06:49:05;;;;;;;12.45;8.27;;;;;;;13.48;70.24;95328.72;5094457;28;20226;-72
2022/10/20 06:51:32;;;;;;;13.40;9.20;;;;;;;13.41;71.43;95333.88;5093458;28;20214;-73
2022/10/20 06:54:00;;;;;;;14.20;8.60;;;;;;;13.01;72.30;95332.56;5093319;28;20609;-74
2022/10/20 06:56:29;;;;;;;12.98;8.20;;;;;;;12.96;72.76;95338.19;5093450;28;20198;-73
2022/10/20 06:58:57;;;;;;;13.60;6.38;;;;;;;13.19;72.50;95336.88;5086759;28;20210;-73
2022/10/20 07:01:25;;;;;;;4.55;2.33;;;;;;;13.11;72.30;95334.94;5112621;28;20309;-73
2022/10/20 07:03:56;;;;;;;9.05;5.63;;;;;;;13.06;73.21;95337.84;5092616;28;20242;-73
2022/10/20 07:06:27;;;;;;;9.98;5.20;;;;;;;13.01;73.00;95336.09;5092564;28;20268;-73
2022/10/20 07:08:55;;;;;;;8.85;5.50;;;;;;;13.03;72.94;95346.66;5101936;28;20205;-73
2022/10/20 07:11:24;;;;;;;12.38;5.72;;;;;;;13.16;72.65;95349.19;5097336;28;20202;-73
2022/10/20 07:13:51;;;;;;;8.10;4.75;;;;;;;13.34;72.11;95349.13;5092297;28;20762;-73
2022/10/20 07:16:19;;;;;;;8.13;5.05;;;;;;;12.93;73.16;95347.81;5092352;28;20243;-73
2022/10/20 07:18:47;;;;;;;9.43;5.97;;;;;;;13.34;72.49;95343.69;5092775;28;20248;-73
2022/10/20 07:21:16;;;;;;;9.82;5.28;;;;;;;13.70;70.95;95340.44;5092386;28;20267;-73
2022/10/20 07:23:44;;;;;;;6.10;3.47;;;;;;;13.73;70.08;95346.03;5092602;28;20206;-73
2022/10/20 07:26:13;;;;;;;7.25;3.78;;;;;;;13.09;71.71;95343.44;5092874;28;20202;-73
2022/10/20 07:28:42;;;;;;;5.18;3.55;;;;;;;13.33;71.25;95342.09;5092718;28;20222;-73
2022/10/20 07:31:12;;;;;;;5.50;3.28;;;;;;;13.51;70.62;95347.13;5092365;28;20285;-73
2022/10/20 07:33:39;;;;;;;8.50;4.55;;;;;;;14.07;69.34;95342.28;5092133;28;20239;-73
2022/10/20 07:36:12;;;;;;;10.90;5.10;;;;;;;14.34;67.67;95349.13;5092227;28;20260;-72
2022/10/20 07:38:40;;;;;;;5.93;3.72;;;;;;;14.18;67.79;95346.22;5092523;28;20195;-72
2022/10/20 07:41:07;;;;;;;9.18;4.95;;;;;;;13.62;69.60;95350.28;5092062;28;20259;-72
2022/10/20 07:43:35;;;;;;;7.28;4.75;;;;;;;13.76;68.88;95355.47;5092110;28;20213;-71
2022/10/20 07:46:02;;;;;;;9.02;5.68;;;;;;;13.51;69.28;95354.50;5092215;28;20206;-72
2022/10/20 07:48:28;;;;;;;7.78;5.10;;;;;;;13.42;69.61;95346.34;5092002;28;20226;-72
2022/10/20 07:51:12;;;;;;;7.68;4.97;;;;;;;13.74;68.74;95341.38;5091341;28;20550;-72
2022/10/20 07:53:40;;;;;;;8.25;4.90;;;;;;;13.72;68.73;95339.00;5091634;28;20686;-72
2022/10/20 07:56:07;;;;;;;7.53;4.65;;;;;;;13.65;69.79;95343.38;5091977;28;20202;-73
2022/10/20 07:58:34;;;;;;;12.60;5.78;;;;;;;13.95;68.83;95335.94;5092062;28;20210;-72
2022/10/20 08:01:01;;;;;;;10.52;7.53;;;;;;;14.22;67.70;95330.78;5091952;28;20550;-73
2022/10/20 08:03:27;;;;;;;32.55;4.80;;;;;;;13.93;67.21;95339.03;5091288;28;20939;-73
2022/10/20 08:05:54;;;;;;;5.22;3.05;;;;;;;13.92;67.35;95342.88;5092147;28;20210;-73
2022/10/20 08:08:21;;;;;;;6.57;4.50;;;;;;;13.56;68.14;95337.16;5091893;28;20202;-73
2022/10/20 08:10:49;;;;;;;6.05;3.17;;;;;;;13.67;67.76;95332.94;5091919;28;20302;-78
2022/10/20 08:13:16;;;;;;;8.43;5.75;;;;;;;13.78;67.83;95328.72;5091972;28;20271;-73
2022/10/20 08:15:43;;;;;;;7.10;4.47;;;;;;;14.14;67.30;95330.84;5091827;28;20264;-72
2022/10/20 08:18:10;;;;;;;6.13;2.97;;;;;;;14.44;66.11;95328.88;5105476;28;20267;-72
2022/10/20 08:20:36;;;;;;;5.40;3.20;;;;;;;14.28;64.29;95328.66;5091574;28;20206;-72
2022/10/20 08:23:03;;;;;;;3.65;2.45;;;;;;;14.41;64.43;95329.53;5091791;28;20190;-73
2022/10/20 08:25:30;;;;;;;7.38;4.07;;;;;;;14.68;64.03;95315.31;5091511;28;20679;-73
2022/10/20 08:27:58;;;;;;;5.30;3.67;;;;;;;14.71;64.65;95325.56;5096596;28;20713;-74
2022/10/20 08:30:25;;;;;;;7.00;4.07;;;;;;;14.63;64.35;95322.91;5099602;28;20264;-73
2022/10/20 08:32:52;;;;;;;5.85;3.53;;;;;;;14.40;63.15;95304.19;5091535;28;20603;-73
2022/10/20 08:35:19;;;;;;;4.32;2.53;;;;;;;14.20;64.93;95319.44;5091145;28;20281;-73
2022/10/20 08:37:46;;;;;;;8.10;3.78;;;;;;;13.97;64.53;95320.88;5090764;28;20271;-72
2022/10/20 08:40:16;;;;;;;6.80;3.70;;;;;;;14.22;64.00;95319.88;5104072;28;20206;-73
2022/10/20 08:42:45;;;;;;;9.52;5.55;;;;;;;14.28;63.52;95323.19;5105016;28;20214;-73
2022/10/20 08:45:17;;;;;;;7.13;3.42;;;;;;;14.37;62.96;95314.94;5091157;28;20628;-72
2022/10/20 08:47:47;;;;;;;2.45;1.67;;;;;;;14.14;62.26;95318.03;5078192;28;20247;-72
2022/10/20 08:50:16;;;;;;;8.68;5.15;;;;;;;14.21;62.40;95329.16;5090981;28;20198;-73
2022/10/20 08:52:44;;;;;;;4.25;2.70;;;;;;;14.36;62.65;95325.03;5090880;28;20206;-73
2022/10/20 08:55:21;;;;;;;8.13;4.95;;;;;;;14.42;62.50;95317.50;5090240;28;20198;-72
2022/10/20 08:57:49;;;;;;;6.40;3.70;;;;;;;14.27;62.44;95315.34;5091552;28;20541;-72
2022/10/20 09:00:20;;;;;;;6.47;4.00;;;;;;;14.44;62.14;95315.25;5107909;28;20368;-73
2022/10/20 09:02:47;;;;;;;4.32;3.00;;;;;;;14.63;61.27;95306.53;5099901;28;20233;-73
2022/10/20 09:05:16;;;;;;;5.35;3.10;;;;;;;15.01;61.09;95314.50;5090443;28;20723;-72
2022/10/20 09:07:43;;;;;;;7.72;5.32;;;;;;;15.00;60.39;95310.97;5090459;28;20206;-73
2022/10/20 09:10:23;;;;;;;8.02;5.20;;;;;;;15.05;59.49;95312.66;5090313;28;20645;-72
2022/10/20 09:12:51;;;;;;;10.50;5.00;;;;;;;14.89;58.84;95316.06;5090546;28;20198;-72
2022/10/20 09:15:21;;;;;;;5.85;2.80;;;;;;;14.81;58.93;95314.22;5077606;28;20198;-73
2022/10/20 09:17:51;;;;;;;7.32;4.60;;;;;;;14.86;58.37;95314.00;5097014;28;20647;-74
2022/10/20 09:20:23;;;;;;;5.88;4.20;;;;;;;14.98;57.54;95318.69;5102169;28;20277;-72
2022/10/20 09:22:49;;;;;;;6.68;3.67;;;;;;;15.05;57.12;95318.13;5097302;28;20194;-73
2022/10/20 09:25:22;;;;;;;4.68;3.28;;;;;;;14.84;56.70;95324.47;5090675;28;20206;-72
2022/10/20 09:27:50;;;;;;;3.92;2.65;;;;;;;14.72;57.46;95316.25;5081943;28;20589;-73
2022/10/20 09:30:21;;;;;;;4.80;2.72;;;;;;;15.25;55.71;95312.59;5083112;28;20268;-73
2022/10/20 09:32:49;;;;;;;4.72;2.70;;;;;;;15.29;56.09;95313.50;5083621;28;20240;-72
2022/10/20 09:35:25;;;;;;;3.50;2.28;;;;;;;15.41;55.63;95315.44;5086590;28;20205;-73
2022/10/20 09:37:58;;;;;;;2.70;2.00;;;;;;;15.37;54.62;95322.72;5089207;28;20197;-73
2022/10/20 09:40:26;;;;;;;5.68;2.17;;;;;;;15.55;53.98;95315.94;5110618;28;20193;-72
2022/10/20 09:42:56;;;;;;;2.20;1.85;;;;;;;15.60;52.97;95318.41;5086818;28;20218;-73
2022/10/20 09:45:27;;;;;;;4.80;2.60;;;;;;;15.84;53.68;95297.69;5089474;28;20198;-73
2022/10/20 09:47:59;;;;;;;4.38;3.38;;;;;;;16.03;52.12;95313.47;5078478;28;20701;-72
2022/10/20 09:50:30;;;;;;;3.75;2.83;;;;;;;16.10;51.47;95309.03;5088265;28;20631;-72
2022/10/20 09:52:59;;;;;;;4.82;2.40;;;;;;;15.72;52.16;95297.69;5084996;28;20786;-72
2022/10/20 09:55:29;;;;;;;4.82;3.17;;;;;;;15.85;51.52;95296.56;5078841;28;20359;-72
2022/10/20 09:57:59;;;;;;;3.58;2.58;;;;;;;15.96;51.29;95281.28;5089463;28;20669;-72
2022/10/20 10:00:31;;;;;;;4.03;3.10;;;;;;;15.61;52.18;95287.22;5085327;28;20203;-72
2022/10/20 10:03:19;;;;;;;3.83;2.38;;;;;;;15.77;52.05;95300.19;5082185;28;20298;-72
2022/10/20 10:05:47;;;;;;;2.88;1.80;;;;;;;16.00;51.80;95295.81;5102656;28;20651;-72
2022/10/20 10:08:15;;;;;;;2.53;1.75;;;;;;;15.99;51.95;95291.47;5115464;28;20544;-72
2022/10/20 10:10:44;;;;;;;3.17;1.85;;;;;;;15.75;51.47;95284.13;5096239;28;20607;-72
2022/10/20 10:13:23;;;;;;;3.72;1.88;;;;;;;15.85;51.64;95280.94;5094887;28;20251;-72
2022/10/20 10:16:00;;;;;;;3.53;2.00;;;;;;;15.78;51.16;95274.47;5087586;28;20198;-72
2022/10/20 10:18:27;;;;;;;1.48;1.10;;;;;;;15.67;51.98;95284.28;5096335;28;20624;-72
2022/10/20 10:21:00;;;;;;;6.50;3.13;;;;;;;15.36;52.64;95263.78;5096007;28;20206;-72
2022/10/20 10:23:28;;;;;;;1.98;1.70;;;;;;;15.57;52.09;95272.69;5110842;28;20213;-72
2022/10/20 10:25:55;;;;;;;5.25;2.20;;;;;;;15.64;51.46;95277.56;5101792;28;20202;-73
2022/10/20 10:28:43;;;;;;;1.75;1.52;;;;;;;15.62;51.05;95275.16;5096389;28;20271;-73
2022/10/20 10:31:21;;;;;;;4.10;1.83;;;;;;;15.42;51.01;95273.34;5104818;28;20251;-72
2022/10/20 10:33:51;;;;;;;4.70;2.60;;;;;;;15.37;51.05;95276.31;5108617;28;20575;-73
2022/10/20 10:36:29;;;;;;;4.53;3.20;;;;;;;15.54;51.35;95286.19;5096318;28;20267;-73
2022/10/20 10:38:57;;;;;;;1.42;0.95;;;;;;;15.69;49.76;95280.06;5096326;28;20214;-72
2022/10/20 10:41:38;;;;;;;3.58;2.13;;;;;;;15.62;50.39;95277.91;5095904;28;20212;-71
2022/10/20 10:44:14;;;;;;;2.55;1.50;;;;;;;15.73;50.46;95271.97;5095993;28;20263;-74
2022/10/20 10:46:50;;;;;;;2.15;1.48;;;;;;;15.45;50.26;95275.38;5096062;28;20246;-72
2022/10/20 10:49:37;;;;;;;1.92;1.67;;;;;;;15.60;50.57;95263.78;5102125;28;20236;-72
2022/10/20 10:52:16;;;;;;;3.72;1.90;;;;;;;15.90;49.90;95260.78;5116242;28;20205;-72
2022/10/20 10:54:58;;;;;;;4.10;2.20;;;;;;;15.77;50.73;95256.47;5105186;28;20274;-72
2022/10/20 10:57:31;;;;;;;3.35;2.97;;;;;;;15.72;49.77;95256.72;5095485;28;20266;-72
2022/10/20 11:00:01;;;;;;;3.72;2.97;;;;;;;15.92;50.01;95247.56;5096426;28;20260;-72
2022/10/20 11:02:49;;;;;;;2.33;1.75;;;;;;;16.19;49.42;95241.31;5116247;28;20312;-72
2022/10/20 11:05:46;;;;;;;3.95;3.05;;;;;;;16.02;49.42;95247.06;5098918;28;20255;-72
2022/10/20 11:08:27;;;;;;;1.95;1.73;;;;;;;16.18;49.56;95249.88;5085485;28;20204;-72
2022/10/20 11:11:03;;;;;;;2.00;1.80;;;;;;;15.93;49.47;95249.97;5106325;28;20263;-73
2022/10/20 11:13:36;;;;;;;2.90;2.58;;;;;;;15.77;48.73;95240.09;5095912;28;20294;-73
2022/10/20 11:16:20;;;;;;;3.22;2.22;;;;;;;15.84;49.37;95240.31;5094952;28;20268;-72
2022/10/20 11:19:34;;;;;;;3.05;1.83;;;;;;;16.08;49.33;95232.03;5092024;28;20202;-72
2022/10/20 11:22:17;;;;;;;2.65;1.77;;;;;;;16.52;48.57;95226.59;5035320;28;20269;-73
2022/10/20 11:24:49;;;;;;;2.85;2.08;;;;;;;16.64;47.85;95230.09;5098457;28;20293;-72
2022/10/20 11:27:19;;;;;;;4.13;3.15;;;;;;;16.70;46.90;95222.41;5104781;28;20310;-72
2022/10/20 11:29:49;;;;;;;4.90;3.15;;;;;;;16.88;48.07;95214.66;5092629;28;20206;-73
2022/10/20 11:32:24;;;;;;;3.97;2.85;;;;;;;16.66;47.34;95227.00;5091176;28;20209;-73
2022/10/20 11:34:59;;;;;;;2.80;2.50;;;;;;;16.34;48.44;95220.63;5089421;28;20289;-73
2022/10/20 11:37:30;;;;;;;5.93;2.85;;;;;;;16.15;48.82;95217.75;5092478;28;20251;-72
2022/10/20 11:40:05;;;;;;;2.97;2.08;;;;;;;16.48;48.67;95220.22;5092958;28;20199;-73
2022/10/20 11:42:40;;;;;;;2.65;1.83;;;;;;;16.46;48.33;95214.31;5089343;28;20186;-73
2022/10/20 11:45:25;;;;;;;1.98;1.42;;;;;;;16.32;48.22;95218.25;5092698;28;20328;-72